sensor_id;sensor_type;location;lat;lon;timestamp;P1;durP1;ratioP1;P2;durP2;ratioP2
10246;SDS011;5168;47.854;7.944;2023-11-22T00:02:03;2.80;;;2.60;;
10246;SDS011;5168;47.854;7.944;2023-11-22T00:04:29;4.10;;;2.70;;
10246;SDS011;5168;47.854;7.944;2023-11-22T00:06:55;4.03;;;2.73;;
10246;SDS011;5168;47.854;7.944;2023-11-22T00:09:21;4.83;;;3.00;;
10246;SDS011;5168;47.854;7.944;2023-11-22T00:11:48;2.97;;;2.67;;
10246;SDS011;5168;47.854;7.944;2023-11-22T00:14:14;2.43;;;2.23;;
10246;SDS011;5168;47.854;7.944;2023-11-22T00:16:40;3.13;;;2.60;;
10246;SDS011;5168;47.854;7.944;2023-11-22T00:19:06;4.30;;;2.87;;
10246;SDS011;5168;47.854;7.944;2023-11-22T00:21:32;3.20;;;2.60;;
10246;SDS011;5168;47.854;7.944;2023-11-22T00:23:58;2.70;;;2.50;;
10246;SDS011;5168;47.854;7.944;2023-11-22T00:26:24;3.00;;;2.60;;
10246;SDS011;5168;47.854;7.944;2023-11-22T00:28:50;2.80;;;2.60;;
10246;SDS011;5168;47.854;7.944;2023-11-22T00:31:15;2.97;;;2.33;;
10246;SDS011;5168;47.854;7.944;2023-11-22T00:33:41;3.87;;;2.67;;
10246;SDS011;5168;47.854;7.944;2023-11-22T00:36:07;2.40;;;2.20;;
10246;SDS011;5168;47.854;7.944;2023-11-22T00:38:33;2.60;;;2.40;;
10246;SDS011;5168;47.854;7.944;2023-11-22T00:41:01;2.40;;;2.20;;
10246;SDS011;5168;47.854;7.944;2023-11-22T00:43:27;2.57;;;2.37;;
10246;SDS011;5168;47.854;7.944;2023-11-22T00:45:53;2.77;;;2.53;;
10246;SDS011;5168;47.854;7.944;2023-11-22T00:48:18;2.67;;;2.40;;
10246;SDS011;5168;47.854;7.944;2023-11-22T00:50:44;2.50;;;2.30;;
10246;SDS011;5168;47.854;7.944;2023-11-22T00:53:10;2.20;;;2.10;;
10246;SDS011;5168;47.854;7.944;2023-11-22T00:55:36;3.00;;;2.20;;
10246;SDS011;5168;47.854;7.944;2023-11-22T00:58:02;2.90;;;2.23;;
10246;SDS011;5168;47.854;7.944;2023-11-22T01:00:32;2.60;;;2.17;;
10246;SDS011;5168;47.854;7.944;2023-11-22T01:02:58;2.27;;;2.07;;
10246;SDS011;5168;47.854;7.944;2023-11-22T01:05:23;2.27;;;2.13;;
10246;SDS011;5168;47.854;7.944;2023-11-22T01:07:49;2.37;;;2.00;;
10246;SDS011;5168;47.854;7.944;2023-11-22T01:10:15;2.40;;;2.30;;
10246;SDS011;5168;47.854;7.944;2023-11-22T01:12:40;3.43;;;2.20;;
10246;SDS011;5168;47.854;7.944;2023-11-22T01:15:09;2.57;;;2.37;;
10246;SDS011;5168;47.854;7.944;2023-11-22T01:17:35;2.50;;;2.30;;
10246;SDS011;5168;47.854;7.944;2023-11-22T01:20:01;2.60;;;2.40;;
10246;SDS011;5168;47.854;7.944;2023-11-22T01:22:28;2.10;;;1.83;;
10246;SDS011;5168;47.854;7.944;2023-11-22T01:24:54;2.33;;;2.13;;
10246;SDS011;5168;47.854;7.944;2023-11-22T01:27:19;2.30;;;2.10;;
10246;SDS011;5168;47.854;7.944;2023-11-22T01:29:45;1.97;;;1.87;;
10246;SDS011;5168;47.854;7.944;2023-11-22T01:32:12;2.10;;;2.00;;
10246;SDS011;5168;47.854;7.944;2023-11-22T01:34:38;1.93;;;1.83;;
10246;SDS011;5168;47.854;7.944;2023-11-22T01:37:04;3.30;;;2.00;;
10246;SDS011;5168;47.854;7.944;2023-11-22T01:39:30;1.97;;;1.87;;
10246;SDS011;5168;47.854;7.944;2023-11-22T01:41:56;2.37;;;1.80;;
10246;SDS011;5168;47.854;7.944;2023-11-22T01:44:22;1.90;;;1.80;;
10246;SDS011;5168;47.854;7.944;2023-11-22T01:46:48;1.70;;;1.60;;
10246;SDS011;5168;47.854;7.944;2023-11-22T01:49:14;2.10;;;1.90;;
10246;SDS011;5168;47.854;7.944;2023-11-22T01:51:40;2.10;;;1.90;;
10246;SDS011;5168;47.854;7.944;2023-11-22T01:54:06;2.23;;;2.00;;
10246;SDS011;5168;47.854;7.944;2023-11-22T01:56:33;2.40;;;2.20;;
10246;SDS011;5168;47.854;7.944;2023-11-22T01:59:04;2.13;;;2.00;;
10246;SDS011;5168;47.854;7.944;2023-11-22T02:01:30;2.10;;;2.00;;
10246;SDS011;5168;47.854;7.944;2023-11-22T02:03:56;2.23;;;2.13;;
10246;SDS011;5168;47.854;7.944;2023-11-22T02:06:22;2.20;;;2.10;;
10246;SDS011;5168;47.854;7.944;2023-11-22T02:08:48;2.93;;;2.40;;
10246;SDS011;5168;47.854;7.944;2023-11-22T02:11:16;2.73;;;2.50;;
10246;SDS011;5168;47.854;7.944;2023-11-22T02:13:47;2.53;;;2.33;;
10246;SDS011;5168;47.854;7.944;2023-11-22T02:16:16;2.70;;;2.20;;
10246;SDS011;5168;47.854;7.944;2023-11-22T02:18:45;2.03;;;1.93;;
10246;SDS011;5168;47.854;7.944;2023-11-22T02:21:12;1.90;;;1.80;;
10246;SDS011;5168;47.854;7.944;2023-11-22T02:23:38;2.27;;;2.17;;
10246;SDS011;5168;47.854;7.944;2023-11-22T02:26:04;2.30;;;2.10;;
10246;SDS011;5168;47.854;7.944;2023-11-22T02:28:29;2.50;;;2.30;;
10246;SDS011;5168;47.854;7.944;2023-11-22T02:30:55;2.60;;;2.40;;
10246;SDS011;5168;47.854;7.944;2023-11-22T02:33:21;2.50;;;2.30;;
10246;SDS011;5168;47.854;7.944;2023-11-22T02:35:46;2.50;;;2.30;;
10246;SDS011;5168;47.854;7.944;2023-11-22T02:38:12;2.30;;;2.20;;
10246;SDS011;5168;47.854;7.944;2023-11-22T02:40:38;2.20;;;2.10;;
10246;SDS011;5168;47.854;7.944;2023-11-22T02:43:03;2.67;;;2.47;;
10246;SDS011;5168;47.854;7.944;2023-11-22T02:45:32;3.70;;;2.60;;
10246;SDS011;5168;47.854;7.944;2023-11-22T02:47:57;2.37;;;2.17;;
10246;SDS011;5168;47.854;7.944;2023-11-22T02:50:24;2.77;;;2.57;;
10246;SDS011;5168;47.854;7.944;2023-11-22T02:52:50;2.30;;;2.13;;
10246;SDS011;5168;47.854;7.944;2023-11-22T02:55:16;2.57;;;2.40;;
10246;SDS011;5168;47.854;7.944;2023-11-22T02:57:41;2.00;;;1.90;;
10246;SDS011;5168;47.854;7.944;2023-11-22T03:00:07;2.10;;;2.00;;
10246;SDS011;5168;47.854;7.944;2023-11-22T03:02:34;1.80;;;1.70;;
10246;SDS011;5168;47.854;7.944;2023-11-22T03:05:00;2.17;;;2.07;;
10246;SDS011;5168;47.854;7.944;2023-11-22T03:07:26;2.40;;;2.30;;
10246;SDS011;5168;47.854;7.944;2023-11-22T03:09:51;2.00;;;1.90;;
10246;SDS011;5168;47.854;7.944;2023-11-22T03:12:18;1.90;;;1.80;;
10246;SDS011;5168;47.854;7.944;2023-11-22T03:14:45;2.07;;;1.97;;
10246;SDS011;5168;47.854;7.944;2023-11-22T03:17:11;2.00;;;1.90;;
10246;SDS011;5168;47.854;7.944;2023-11-22T03:19:38;2.00;;;1.90;;
10246;SDS011;5168;47.854;7.944;2023-11-22T03:22:04;1.73;;;1.63;;
10246;SDS011;5168;47.854;7.944;2023-11-22T03:24:31;2.67;;;2.10;;
10246;SDS011;5168;47.854;7.944;2023-11-22T03:27:00;1.70;;;1.60;;
10246;SDS011;5168;47.854;7.944;2023-11-22T03:29:26;1.87;;;1.77;;
10246;SDS011;5168;47.854;7.944;2023-11-22T03:31:52;1.70;;;1.60;;
10246;SDS011;5168;47.854;7.944;2023-11-22T03:34:21;1.73;;;1.63;;
10246;SDS011;5168;47.854;7.944;2023-11-22T03:36:46;1.90;;;1.80;;
10246;SDS011;5168;47.854;7.944;2023-11-22T03:39:14;1.97;;;1.80;;
10246;SDS011;5168;47.854;7.944;2023-11-22T03:41:41;1.90;;;1.80;;
10246;SDS011;5168;47.854;7.944;2023-11-22T03:44:07;2.00;;;1.90;;
10246;SDS011;5168;47.854;7.944;2023-11-22T03:46:37;2.30;;;2.10;;
10246;SDS011;5168;47.854;7.944;2023-11-22T03:49:03;2.20;;;2.07;;
10246;SDS011;5168;47.854;7.944;2023-11-22T03:51:29;1.87;;;1.77;;
10246;SDS011;5168;47.854;7.944;2023-11-22T03:53:55;1.90;;;1.80;;
10246;SDS011;5168;47.854;7.944;2023-11-22T03:56:22;2.13;;;2.03;;
10246;SDS011;5168;47.854;7.944;2023-11-22T03:58:47;2.07;;;1.97;;
10246;SDS011;5168;47.854;7.944;2023-11-22T04:01:14;1.90;;;1.80;;
10246;SDS011;5168;47.854;7.944;2023-11-22T04:03:41;1.90;;;1.80;;
10246;SDS011;5168;47.854;7.944;2023-11-22T04:06:06;1.80;;;1.70;;
10246;SDS011;5168;47.854;7.944;2023-11-22T04:08:32;1.90;;;1.80;;
10246;SDS011;5168;47.854;7.944;2023-11-22T04:10:58;1.63;;;1.53;;
10246;SDS011;5168;47.854;7.944;2023-11-22T04:13:23;2.03;;;1.93;;
10246;SDS011;5168;47.854;7.944;2023-11-22T04:15:50;2.03;;;1.60;;
10246;SDS011;5168;47.854;7.944;2023-11-22T04:18:16;1.80;;;1.70;;
10246;SDS011;5168;47.854;7.944;2023-11-22T04:20:41;1.73;;;1.63;;
10246;SDS011;5168;47.854;7.944;2023-11-22T04:23:07;2.00;;;1.90;;
10246;SDS011;5168;47.854;7.944;2023-11-22T04:25:35;1.80;;;1.70;;
10246;SDS011;5168;47.854;7.944;2023-11-22T04:28:01;1.90;;;1.80;;
10246;SDS011;5168;47.854;7.944;2023-11-22T04:30:27;2.00;;;1.90;;
10246;SDS011;5168;47.854;7.944;2023-11-22T04:32:53;1.90;;;1.80;;
10246;SDS011;5168;47.854;7.944;2023-11-22T04:35:18;1.90;;;1.80;;
10246;SDS011;5168;47.854;7.944;2023-11-22T04:37:44;1.90;;;1.80;;
10246;SDS011;5168;47.854;7.944;2023-11-22T04:40:10;2.03;;;1.93;;
10246;SDS011;5168;47.854;7.944;2023-11-22T04:42:36;1.90;;;1.80;;
10246;SDS011;5168;47.854;7.944;2023-11-22T04:45:02;1.90;;;1.80;;
10246;SDS011;5168;47.854;7.944;2023-11-22T04:47:28;1.80;;;1.70;;
10246;SDS011;5168;47.854;7.944;2023-11-22T04:49:53;2.03;;;1.93;;
10246;SDS011;5168;47.854;7.944;2023-11-22T04:52:19;1.93;;;1.83;;
10246;SDS011;5168;47.854;7.944;2023-11-22T04:54:45;2.10;;;2.00;;
10246;SDS011;5168;47.854;7.944;2023-11-22T04:57:11;2.10;;;2.00;;
10246;SDS011;5168;47.854;7.944;2023-11-22T04:59:37;2.03;;;1.93;;
10246;SDS011;5168;47.854;7.944;2023-11-22T05:02:03;1.90;;;1.80;;
10246;SDS011;5168;47.854;7.944;2023-11-22T05:04:29;1.80;;;1.70;;
10246;SDS011;5168;47.854;7.944;2023-11-22T05:06:55;2.00;;;1.90;;
10246;SDS011;5168;47.854;7.944;2023-11-22T05:09:21;1.97;;;1.87;;
10246;SDS011;5168;47.854;7.944;2023-11-22T05:11:46;1.90;;;1.80;;
10246;SDS011;5168;47.854;7.944;2023-11-22T05:14:12;2.10;;;2.00;;
10246;SDS011;5168;47.854;7.944;2023-11-22T05:16:38;2.00;;;1.90;;
10246;SDS011;5168;47.854;7.944;2023-11-22T05:19:05;1.97;;;1.87;;
10246;SDS011;5168;47.854;7.944;2023-11-22T05:21:31;2.00;;;1.90;;
10246;SDS011;5168;47.854;7.944;2023-11-22T05:24:00;2.00;;;1.90;;
10246;SDS011;5168;47.854;7.944;2023-11-22T05:26:25;1.90;;;1.80;;
10246;SDS011;5168;47.854;7.944;2023-11-22T05:28:52;1.87;;;1.77;;
10246;SDS011;5168;47.854;7.944;2023-11-22T05:31:19;1.80;;;1.70;;
10246;SDS011;5168;47.854;7.944;2023-11-22T05:33:45;1.90;;;1.80;;
10246;SDS011;5168;47.854;7.944;2023-11-22T05:36:11;1.90;;;1.80;;
10246;SDS011;5168;47.854;7.944;2023-11-22T05:38:37;1.80;;;1.70;;
10246;SDS011;5168;47.854;7.944;2023-11-22T05:41:03;2.00;;;1.90;;
10246;SDS011;5168;47.854;7.944;2023-11-22T05:43:29;2.10;;;2.00;;
10246;SDS011;5168;47.854;7.944;2023-11-22T05:45:55;2.00;;;1.90;;
10246;SDS011;5168;47.854;7.944;2023-11-22T05:48:21;1.70;;;1.60;;
10246;SDS011;5168;47.854;7.944;2023-11-22T05:50:47;2.03;;;1.93;;
10246;SDS011;5168;47.854;7.944;2023-11-22T05:53:13;2.20;;;2.10;;
10246;SDS011;5168;47.854;7.944;2023-11-22T05:55:44;2.33;;;2.23;;
10246;SDS011;5168;47.854;7.944;2023-11-22T05:58:12;2.33;;;2.23;;
10246;SDS011;5168;47.854;7.944;2023-11-22T06:00:41;2.70;;;2.50;;
10246;SDS011;5168;47.854;7.944;2023-11-22T06:03:11;2.23;;;2.13;;
10246;SDS011;5168;47.854;7.944;2023-11-22T06:05:37;2.20;;;2.10;;
10246;SDS011;5168;47.854;7.944;2023-11-22T06:08:03;2.37;;;2.17;;
10246;SDS011;5168;47.854;7.944;2023-11-22T06:10:29;2.30;;;2.20;;
10246;SDS011;5168;47.854;7.944;2023-11-22T06:12:55;2.70;;;2.50;;
10246;SDS011;5168;47.854;7.944;2023-11-22T06:15:21;2.60;;;2.40;;
10246;SDS011;5168;47.854;7.944;2023-11-22T06:17:47;2.20;;;2.10;;
10246;SDS011;5168;47.854;7.944;2023-11-22T06:20:16;2.10;;;2.00;;
10246;SDS011;5168;47.854;7.944;2023-11-22T06:22:42;2.00;;;1.90;;
10246;SDS011;5168;47.854;7.944;2023-11-22T06:25:10;2.33;;;2.13;;
10246;SDS011;5168;47.854;7.944;2023-11-22T06:27:37;2.40;;;2.20;;
10246;SDS011;5168;47.854;7.944;2023-11-22T06:30:03;3.00;;;2.23;;
10246;SDS011;5168;47.854;7.944;2023-11-22T06:32:29;2.50;;;2.40;;
10246;SDS011;5168;47.854;7.944;2023-11-22T06:34:54;8.93;;;2.63;;
10246;SDS011;5168;47.854;7.944;2023-11-22T06:37:20;2.40;;;2.30;;
10246;SDS011;5168;47.854;7.944;2023-11-22T06:39:46;2.30;;;2.20;;
10246;SDS011;5168;47.854;7.944;2023-11-22T06:42:12;8.30;;;2.40;;
10246;SDS011;5168;47.854;7.944;2023-11-22T06:44:41;2.20;;;2.10;;
10246;SDS011;5168;47.854;7.944;2023-11-22T06:47:07;3.97;;;2.57;;
10246;SDS011;5168;47.854;7.944;2023-11-22T06:49:33;2.93;;;2.30;;
10246;SDS011;5168;47.854;7.944;2023-11-22T06:51:59;2.60;;;2.30;;
10246;SDS011;5168;47.854;7.944;2023-11-22T06:54:25;2.20;;;2.10;;
10246;SDS011;5168;47.854;7.944;2023-11-22T06:56:51;2.30;;;2.20;;
10246;SDS011;5168;47.854;7.944;2023-11-22T06:59:17;2.40;;;2.30;;
10246;SDS011;5168;47.854;7.944;2023-11-22T07:01:43;2.23;;;2.13;;
10246;SDS011;5168;47.854;7.944;2023-11-22T07:04:09;2.40;;;2.27;;
10246;SDS011;5168;47.854;7.944;2023-11-22T07:06:35;2.40;;;2.20;;
10246;SDS011;5168;47.854;7.944;2023-11-22T07:09:03;2.30;;;2.10;;
10246;SDS011;5168;47.854;7.944;2023-11-22T07:11:29;2.80;;;2.60;;
10246;SDS011;5168;47.854;7.944;2023-11-22T07:13:55;3.17;;;2.97;;
10246;SDS011;5168;47.854;7.944;2023-11-22T07:16:22;3.33;;;3.10;;
10246;SDS011;5168;47.854;7.944;2023-11-22T07:18:49;2.70;;;2.50;;
10246;SDS011;5168;47.854;7.944;2023-11-22T07:21:15;2.33;;;2.23;;
10246;SDS011;5168;47.854;7.944;2023-11-22T07:23:41;2.30;;;2.20;;
10246;SDS011;5168;47.854;7.944;2023-11-22T07:26:07;2.73;;;2.53;;
10246;SDS011;5168;47.854;7.944;2023-11-22T07:28:33;2.50;;;2.40;;
10246;SDS011;5168;47.854;7.944;2023-11-22T07:31:00;2.30;;;2.20;;
10246;SDS011;5168;47.854;7.944;2023-11-22T07:33:27;2.57;;;2.40;;
10246;SDS011;5168;47.854;7.944;2023-11-22T07:35:52;2.33;;;2.23;;
10246;SDS011;5168;47.854;7.944;2023-11-22T07:38:18;1.93;;;1.83;;
10246;SDS011;5168;47.854;7.944;2023-11-22T07:40:44;2.10;;;2.00;;
10246;SDS011;5168;47.854;7.944;2023-11-22T07:43:10;1.90;;;1.80;;
10246;SDS011;5168;47.854;7.944;2023-11-22T07:45:36;2.10;;;2.00;;
10246;SDS011;5168;47.854;7.944;2023-11-22T07:48:05;2.13;;;2.03;;
10246;SDS011;5168;47.854;7.944;2023-11-22T07:50:31;2.47;;;2.00;;
10246;SDS011;5168;47.854;7.944;2023-11-22T07:52:57;2.10;;;2.00;;
10246;SDS011;5168;47.854;7.944;2023-11-22T07:55:23;1.80;;;1.70;;
10246;SDS011;5168;47.854;7.944;2023-11-22T07:57:49;1.90;;;1.80;;
10246;SDS011;5168;47.854;7.944;2023-11-22T08:00:16;2.10;;;2.00;;
10246;SDS011;5168;47.854;7.944;2023-11-22T08:02:44;2.53;;;2.43;;
10246;SDS011;5168;47.854;7.944;2023-11-22T08:05:10;2.50;;;2.20;;
10246;SDS011;5168;47.854;7.944;2023-11-22T08:07:37;2.43;;;2.30;;
10246;SDS011;5168;47.854;7.944;2023-11-22T08:10:05;2.60;;;2.40;;
10246;SDS011;5168;47.854;7.944;2023-11-22T08:12:35;2.10;;;2.00;;
10246;SDS011;5168;47.854;7.944;2023-11-22T08:15:02;2.47;;;2.03;;
10246;SDS011;5168;47.854;7.944;2023-11-22T08:17:29;2.40;;;2.20;;
10246;SDS011;5168;47.854;7.944;2023-11-22T08:19:57;2.00;;;1.90;;
10246;SDS011;5168;47.854;7.944;2023-11-22T08:22:24;2.30;;;2.10;;
10246;SDS011;5168;47.854;7.944;2023-11-22T08:24:52;2.10;;;2.00;;
10246;SDS011;5168;47.854;7.944;2023-11-22T08:27:18;2.23;;;2.03;;
10246;SDS011;5168;47.854;7.944;2023-11-22T08:29:44;1.93;;;1.83;;
10246;SDS011;5168;47.854;7.944;2023-11-22T08:32:12;2.00;;;1.90;;
10246;SDS011;5168;47.854;7.944;2023-11-22T08:34:38;1.80;;;1.70;;
10246;SDS011;5168;47.854;7.944;2023-11-22T08:37:03;1.93;;;1.83;;
10246;SDS011;5168;47.854;7.944;2023-11-22T08:39:29;2.20;;;2.10;;
10246;SDS011;5168;47.854;7.944;2023-11-22T08:41:55;2.00;;;1.90;;
10246;SDS011;5168;47.854;7.944;2023-11-22T08:44:20;1.70;;;1.60;;
10246;SDS011;5168;47.854;7.944;2023-11-22T08:46:46;1.70;;;1.60;;
10246;SDS011;5168;47.854;7.944;2023-11-22T08:49:12;2.00;;;1.90;;
10246;SDS011;5168;47.854;7.944;2023-11-22T08:51:38;1.90;;;1.80;;
10246;SDS011;5168;47.854;7.944;2023-11-22T08:54:03;1.80;;;1.70;;
10246;SDS011;5168;47.854;7.944;2023-11-22T08:56:29;1.93;;;1.83;;
10246;SDS011;5168;47.854;7.944;2023-11-22T08:58:55;2.00;;;1.90;;
10246;SDS011;5168;47.854;7.944;2023-11-22T09:01:20;1.80;;;1.70;;
10246;SDS011;5168;47.854;7.944;2023-11-22T09:03:46;1.70;;;1.60;;
10246;SDS011;5168;47.854;7.944;2023-11-22T09:06:12;1.90;;;1.80;;
10246;SDS011;5168;47.854;7.944;2023-11-22T09:08:38;2.07;;;1.97;;
10246;SDS011;5168;47.854;7.944;2023-11-22T09:11:03;2.60;;;2.50;;
10246;SDS011;5168;47.854;7.944;2023-11-22T09:13:31;2.20;;;2.10;;
10246;SDS011;5168;47.854;7.944;2023-11-22T09:15:57;2.10;;;2.00;;
10246;SDS011;5168;47.854;7.944;2023-11-22T09:18:23;2.00;;;1.90;;
10246;SDS011;5168;47.854;7.944;2023-11-22T09:20:48;2.00;;;1.90;;
10246;SDS011;5168;47.854;7.944;2023-11-22T09:23:14;2.23;;;2.13;;
10246;SDS011;5168;47.854;7.944;2023-11-22T09:25:41;2.10;;;2.00;;
10246;SDS011;5168;47.854;7.944;2023-11-22T09:28:07;3.07;;;2.80;;
10246;SDS011;5168;47.854;7.944;2023-11-22T09:30:34;2.87;;;2.67;;
10246;SDS011;5168;47.854;7.944;2023-11-22T09:33:10;1.73;;;1.63;;
10246;SDS011;5168;47.854;7.944;2023-11-22T09:35:39;1.90;;;1.80;;
10246;SDS011;5168;47.854;7.944;2023-11-22T09:38:06;1.90;;;1.80;;
10246;SDS011;5168;47.854;7.944;2023-11-22T09:40:41;1.83;;;1.73;;
10246;SDS011;5168;47.854;7.944;2023-11-22T09:43:08;1.77;;;1.67;;
10246;SDS011;5168;47.854;7.944;2023-11-22T09:45:34;1.70;;;1.60;;
10246;SDS011;5168;47.854;7.944;2023-11-22T09:48:02;1.60;;;1.50;;
10246;SDS011;5168;47.854;7.944;2023-11-22T09:50:40;1.90;;;1.80;;
10246;SDS011;5168;47.854;7.944;2023-11-22T09:55:55;1.87;;;1.77;;
10246;SDS011;5168;47.854;7.944;2023-11-22T09:58:21;2.10;;;1.90;;
10246;SDS011;5168;47.854;7.944;2023-11-22T10:00:47;2.00;;;1.90;;
10246;SDS011;5168;47.854;7.944;2023-11-22T10:03:13;2.00;;;1.90;;
10246;SDS011;5168;47.854;7.944;2023-11-22T10:05:42;1.80;;;1.70;;
10246;SDS011;5168;47.854;7.944;2023-11-22T10:08:08;2.10;;;2.00;;
10246;SDS011;5168;47.854;7.944;2023-11-22T10:10:34;2.00;;;1.90;;
10246;SDS011;5168;47.854;7.944;2023-11-22T10:13:01;1.83;;;1.73;;
10246;SDS011;5168;47.854;7.944;2023-11-22T10:15:28;1.70;;;1.60;;
10246;SDS011;5168;47.854;7.944;2023-11-22T10:17:58;1.70;;;1.60;;
10246;SDS011;5168;47.854;7.944;2023-11-22T10:20:35;1.97;;;1.87;;
10246;SDS011;5168;47.854;7.944;2023-11-22T10:23:08;1.93;;;1.83;;
10246;SDS011;5168;47.854;7.944;2023-11-22T10:28:26;1.80;;;1.70;;
10246;SDS011;5168;47.854;7.944;2023-11-22T10:30:52;1.63;;;1.53;;
10246;SDS011;5168;47.854;7.944;2023-11-22T10:33:18;1.90;;;1.80;;
10246;SDS011;5168;47.854;7.944;2023-11-22T10:35:48;1.60;;;1.50;;
10246;SDS011;5168;47.854;7.944;2023-11-22T10:38:15;1.70;;;1.60;;
10246;SDS011;5168;47.854;7.944;2023-11-22T10:40:41;1.70;;;1.60;;
10246;SDS011;5168;47.854;7.944;2023-11-22T10:43:09;1.70;;;1.60;;
10246;SDS011;5168;47.854;7.944;2023-11-22T10:45:36;1.80;;;1.70;;
10246;SDS011;5168;47.854;7.944;2023-11-22T10:48:03;1.70;;;1.60;;
10246;SDS011;5168;47.854;7.944;2023-11-22T10:50:30;1.87;;;1.77;;
10246;SDS011;5168;47.854;7.944;2023-11-22T10:52:57;1.80;;;1.70;;
10246;SDS011;5168;47.854;7.944;2023-11-22T10:55:28;2.30;;;1.63;;
10246;SDS011;5168;47.854;7.944;2023-11-22T10:57:58;1.77;;;1.67;;
10246;SDS011;5168;47.854;7.944;2023-11-22T11:00:27;1.77;;;1.67;;
10246;SDS011;5168;47.854;7.944;2023-11-22T11:02:58;1.60;;;1.50;;
10246;SDS011;5168;47.854;7.944;2023-11-22T11:05:29;1.63;;;1.53;;
10246;SDS011;5168;47.854;7.944;2023-11-22T11:08:29;1.70;;;1.60;;
10246;SDS011;5168;47.854;7.944;2023-11-22T11:10:50;1.50;;;1.40;;
10246;SDS011;5168;47.854;7.944;2023-11-22T11:13:16;1.53;;;1.43;;
10246;SDS011;5168;47.854;7.944;2023-11-22T11:15:43;1.80;;;1.70;;
10246;SDS011;5168;47.854;7.944;2023-11-22T11:18:10;1.73;;;1.63;;
10246;SDS011;5168;47.854;7.944;2023-11-22T11:20:45;1.50;;;1.40;;
10246;SDS011;5168;47.854;7.944;2023-11-22T11:23:15;1.63;;;1.53;;
10246;SDS011;5168;47.854;7.944;2023-11-22T11:25:51;1.80;;;1.70;;
10246;SDS011;5168;47.854;7.944;2023-11-22T11:28:19;1.60;;;1.50;;
10246;SDS011;5168;47.854;7.944;2023-11-22T11:33:19;1.80;;;1.70;;
10246;SDS011;5168;47.854;7.944;2023-11-22T11:35:51;2.17;;;1.83;;
10246;SDS011;5168;47.854;7.944;2023-11-22T11:38:19;1.90;;;1.80;;
10246;SDS011;5168;47.854;7.944;2023-11-22T11:40:46;1.93;;;1.83;;
10246;SDS011;5168;47.854;7.944;2023-11-22T11:43:13;1.87;;;1.77;;
10246;SDS011;5168;47.854;7.944;2023-11-22T11:45:39;2.20;;;2.10;;
10246;SDS011;5168;47.854;7.944;2023-11-22T11:48:11;2.00;;;1.90;;
10246;SDS011;5168;47.854;7.944;2023-11-22T11:50:37;2.10;;;2.00;;
10246;SDS011;5168;47.854;7.944;2023-11-22T11:53:03;1.90;;;1.80;;
10246;SDS011;5168;47.854;7.944;2023-11-22T11:55:29;1.90;;;1.80;;
10246;SDS011;5168;47.854;7.944;2023-11-22T11:57:55;2.00;;;1.90;;
10246;SDS011;5168;47.854;7.944;2023-11-22T12:00:22;2.10;;;2.00;;
10246;SDS011;5168;47.854;7.944;2023-11-22T12:02:53;2.07;;;1.97;;
10246;SDS011;5168;47.854;7.944;2023-11-22T12:05:19;2.30;;;2.20;;
10246;SDS011;5168;47.854;7.944;2023-11-22T12:07:45;2.13;;;2.00;;
10246;SDS011;5168;47.854;7.944;2023-11-22T12:10:11;2.77;;;2.57;;
10246;SDS011;5168;47.854;7.944;2023-11-22T12:12:37;2.40;;;2.30;;
10246;SDS011;5168;47.854;7.944;2023-11-22T12:15:04;2.43;;;2.33;;
10246;SDS011;5168;47.854;7.944;2023-11-22T12:17:31;2.70;;;2.50;;
10246;SDS011;5168;47.854;7.944;2023-11-22T12:20:10;2.27;;;2.10;;
10246;SDS011;5168;47.854;7.944;2023-11-22T12:22:40;2.30;;;2.20;;
10246;SDS011;5168;47.854;7.944;2023-11-22T12:25:06;3.87;;;2.50;;
10246;SDS011;5168;47.854;7.944;2023-11-22T12:27:32;2.40;;;2.30;;
10246;SDS011;5168;47.854;7.944;2023-11-22T12:29:58;2.50;;;2.30;;
10246;SDS011;5168;47.854;7.944;2023-11-22T12:32:24;2.60;;;2.40;;
10246;SDS011;5168;47.854;7.944;2023-11-22T12:34:50;2.03;;;1.93;;
10246;SDS011;5168;47.854;7.944;2023-11-22T12:37:20;2.67;;;2.47;;
10246;SDS011;5168;47.854;7.944;2023-11-22T12:39:47;3.20;;;2.30;;
10246;SDS011;5168;47.854;7.944;2023-11-22T12:42:13;2.67;;;2.47;;
10246;SDS011;5168;47.854;7.944;2023-11-22T12:44:49;3.00;;;2.80;;
10246;SDS011;5168;47.854;7.944;2023-11-22T12:47:38;2.30;;;2.20;;
10246;SDS011;5168;47.854;7.944;2023-11-22T12:50:03;2.73;;;2.53;;
10246;SDS011;5168;47.854;7.944;2023-11-22T12:52:29;2.93;;;2.73;;
10246;SDS011;5168;47.854;7.944;2023-11-22T12:54:57;2.67;;;2.47;;
10246;SDS011;5168;47.854;7.944;2023-11-22T12:57:23;2.53;;;2.33;;
10246;SDS011;5168;47.854;7.944;2023-11-22T12:59:49;2.77;;;2.57;;
10246;SDS011;5168;47.854;7.944;2023-11-22T13:02:16;2.30;;;2.20;;
10246;SDS011;5168;47.854;7.944;2023-11-22T13:04:42;2.37;;;2.17;;
10246;SDS011;5168;47.854;7.944;2023-11-22T13:07:08;2.50;;;2.30;;
10246;SDS011;5168;47.854;7.944;2023-11-22T13:09:34;2.40;;;2.20;;
10246;SDS011;5168;47.854;7.944;2023-11-22T13:12:00;2.50;;;2.30;;
10246;SDS011;5168;47.854;7.944;2023-11-22T13:14:27;2.30;;;2.20;;
10246;SDS011;5168;47.854;7.944;2023-11-22T13:17:00;2.40;;;2.20;;
10246;SDS011;5168;47.854;7.944;2023-11-22T13:19:25;2.47;;;2.37;;
10246;SDS011;5168;47.854;7.944;2023-11-22T13:21:51;2.40;;;2.20;;
10246;SDS011;5168;47.854;7.944;2023-11-22T13:24:17;2.20;;;2.10;;
10246;SDS011;5168;47.854;7.944;2023-11-22T13:26:44;2.37;;;2.17;;
10246;SDS011;5168;47.854;7.944;2023-11-22T13:29:10;2.37;;;2.17;;
10246;SDS011;5168;47.854;7.944;2023-11-22T13:31:35;2.60;;;2.40;;
10246;SDS011;5168;47.854;7.944;2023-11-22T13:34:01;2.30;;;2.10;;
10246;SDS011;5168;47.854;7.944;2023-11-22T13:36:27;2.23;;;2.03;;
10246;SDS011;5168;47.854;7.944;2023-11-22T13:38:52;2.30;;;2.20;;
10246;SDS011;5168;47.854;7.944;2023-11-22T13:41:20;2.30;;;2.10;;
10246;SDS011;5168;47.854;7.944;2023-11-22T13:43:45;2.10;;;2.00;;
10246;SDS011;5168;47.854;7.944;2023-11-22T13:46:13;2.57;;;2.37;;
10246;SDS011;5168;47.854;7.944;2023-11-22T13:48:41;2.10;;;2.00;;
10246;SDS011;5168;47.854;7.944;2023-11-22T13:51:06;2.30;;;2.10;;
10246;SDS011;5168;47.854;7.944;2023-11-22T13:53:33;2.17;;;2.00;;
10246;SDS011;5168;47.854;7.944;2023-11-22T13:56:01;2.43;;;2.23;;
10246;SDS011;5168;47.854;7.944;2023-11-22T13:58:33;2.33;;;2.13;;
10246;SDS011;5168;47.854;7.944;2023-11-22T14:00:58;3.10;;;1.90;;
10246;SDS011;5168;47.854;7.944;2023-11-22T14:03:24;2.30;;;2.10;;
10246;SDS011;5168;47.854;7.944;2023-11-22T14:05:50;2.30;;;2.20;;
10246;SDS011;5168;47.854;7.944;2023-11-22T14:08:16;2.60;;;2.40;;
10246;SDS011;5168;47.854;7.944;2023-11-22T14:10:42;2.80;;;2.47;;
10246;SDS011;5168;47.854;7.944;2023-11-22T14:13:09;3.10;;;2.30;;
10246;SDS011;5168;47.854;7.944;2023-11-22T14:15:35;2.17;;;2.07;;
10246;SDS011;5168;47.854;7.944;2023-11-22T14:18:01;2.27;;;2.07;;
10246;SDS011;5168;47.854;7.944;2023-11-22T14:20:26;2.43;;;2.30;;
10246;SDS011;5168;47.854;7.944;2023-11-22T14:22:52;2.50;;;2.30;;
10246;SDS011;5168;47.854;7.944;2023-11-22T14:25:18;2.37;;;2.20;;
10246;SDS011;5168;47.854;7.944;2023-11-22T14:27:44;2.50;;;2.30;;
10246;SDS011;5168;47.854;7.944;2023-11-22T14:30:11;2.33;;;2.20;;
10246;SDS011;5168;47.854;7.944;2023-11-22T14:32:42;2.17;;;2.07;;
10246;SDS011;5168;47.854;7.944;2023-11-22T14:35:08;2.37;;;2.20;;
10246;SDS011;5168;47.854;7.944;2023-11-22T14:37:34;2.83;;;2.40;;
10246;SDS011;5168;47.854;7.944;2023-11-22T14:40:00;2.20;;;2.10;;
10246;SDS011;5168;47.854;7.944;2023-11-22T14:42:28;2.50;;;2.30;;
10246;SDS011;5168;47.854;7.944;2023-11-22T14:44:54;2.50;;;2.30;;
10246;SDS011;5168;47.854;7.944;2023-11-22T14:47:20;2.60;;;2.40;;
10246;SDS011;5168;47.854;7.944;2023-11-22T14:49:51;2.90;;;2.47;;
10246;SDS011;5168;47.854;7.944;2023-11-22T14:52:17;2.43;;;2.20;;
10246;SDS011;5168;47.854;7.944;2023-11-22T14:54:44;2.57;;;2.37;;
10246;SDS011;5168;47.854;7.944;2023-11-22T14:57:10;3.30;;;3.00;;
10246;SDS011;5168;47.854;7.944;2023-11-22T14:59:37;2.87;;;2.43;;
10246;SDS011;5168;47.854;7.944;2023-11-22T15:02:03;2.77;;;2.57;;
10246;SDS011;5168;47.854;7.944;2023-11-22T15:04:32;4.40;;;3.90;;
10246;SDS011;5168;47.854;7.944;2023-11-22T15:07:01;2.73;;;2.53;;